Time;durP1;ratioP1;P1;durP2;ratioP2;P2;SDS_P1;SDS_P2;PMS_P1;PMS_P2;Temp;Humidity;BMP_temperature;BMP_pressure;BME280_temperature;BME280_humidity;BME280_pressure;Samples;Min_cycle;Max_cycle;Signal;HPM_P1;HPM_P2
2023/09/07 00:01:56;;;;;;;5.75;3.00;;;;;;;;;;4988741;28;20042;-70
2023/09/07 00:04:43;;;;;;;8.38;3.50;;;;;;;;;;4976976;28;20034;-74
2023/09/07 00:07:28;;;;;;;5.80;3.28;;;;;;;;;;4976226;28;20037;-72
2023/09/07 00:10:13;;;;;;;4.43;2.70;;;;;;;;;;4990721;28;20026;-73
2023/09/07 00:12:58;;;;;;;6.47;4.28;;;;;;;;;;4990344;28;20117;-72
2023/09/07 00:15:44;;;;;;;5.18;3.40;;;;;;;;;;4989822;28;20465;-72
2023/09/07 00:18:29;;;;;;;6.00;3.28;;;;;;;;;;4986064;28;20113;-70
2023/09/07 00:21:15;;;;;;;4.90;3.20;;;;;;;;;;5003717;28;20388;-64
2023/09/07 00:24:04;;;;;;;4.43;3.38;;;;;;;;;;4984712;28;20461;-64
2023/09/07 00:26:50;;;;;;;5.60;3.40;;;;;;;;;;4991844;28;20460;-64
2023/09/07 00:29:35;;;;;;;7.18;3.63;;;;;;;;;;4987708;28;20042;-66
2023/09/07 00:32:20;;;;;;;4.07;3.15;;;;;;;;;;4989388;28;20054;-64
2023/09/07 00:35:05;;;;;;;8.63;3.22;;;;;;;;;;4999358;28;20378;-63
2023/09/07 00:37:51;;;;;;;5.22;3.15;;;;;;;;;;4990634;28;20120;-68
2023/09/07 00:40:36;;;;;;;4.85;2.78;;;;;;;;;;4991768;28;20042;-70
2023/09/07 00:43:21;;;;;;;8.27;3.20;;;;;;;;;;4974083;28;20708;-68
2023/09/07 00:46:07;;;;;;;7.43;3.60;;;;;;;;;;4991989;28;20033;-72
2023/09/07 00:48:52;;;;;;;4.28;2.78;;;;;;;;;;4991379;28;20037;-69
2023/09/07 00:51:38;;;;;;;4.68;3.10;;;;;;;;;;4978283;28;20076;-69
2023/09/07 00:54:23;;;;;;;4.80;3.15;;;;;;;;;;4991399;28;20030;-69
2023/09/07 00:57:08;;;;;;;4.53;3.20;;;;;;;;;;4989159;28;20026;-79
2023/09/07 00:59:54;;;;;;;7.35;3.97;;;;;;;;;;4987510;28;20045;-71
2023/09/07 01:02:39;;;;;;;7.00;3.15;;;;;;;;;;4988239;28;20481;-69
2023/09/07 01:05:29;;;;;;;5.07;3.30;;;;;;;;;;4989070;28;20034;-68
2023/09/07 01:08:18;;;;;;;10.40;3.78;;;;;;;;;;5002160;28;20125;-70
2023/09/07 01:11:12;;;;;;;4.10;2.83;;;;;;;;;;4987387;28;20124;-71
2023/09/07 01:13:58;;;;;;;6.07;3.22;;;;;;;;;;4988483;28;20037;-73
2023/09/07 01:16:43;;;;;;;4.35;2.85;;;;;;;;;;4991314;28;20038;-64
2023/09/07 01:19:28;;;;;;;8.05;3.17;;;;;;;;;;4989157;28;20065;-63
2023/09/07 01:22:14;;;;;;;5.47;3.38;;;;;;;;;;4987919;28;20037;-65
2023/09/07 01:25:00;;;;;;;5.38;3.22;;;;;;;;;;4990406;28;20481;-64
2023/09/07 01:27:45;;;;;;;5.30;3.10;;;;;;;;;;4990373;28;20030;-64
2023/09/07 01:30:32;;;;;;;7.72;3.15;;;;;;;;;;4986789;28;20065;-66
2023/09/07 01:33:17;;;;;;;10.52;2.80;;;;;;;;;;4991534;28;20030;-64
2023/09/07 01:36:02;;;;;;;7.72;4.18;;;;;;;;;;4989636;28;20409;-64
2023/09/07 01:38:47;;;;;;;4.53;3.10;;;;;;;;;;4990330;28;20166;-63
2023/09/07 01:41:33;;;;;;;4.88;3.03;;;;;;;;;;4990931;28;20137;-64
2023/09/07 01:44:19;;;;;;;6.32;3.72;;;;;;;;;;4986173;28;20488;-63
2023/09/07 01:47:04;;;;;;;6.25;4.10;;;;;;;;;;4990711;28;20033;-64
2023/09/07 01:49:49;;;;;;;3.95;2.70;;;;;;;;;;4990686;28;20084;-64
2023/09/07 01:52:35;;;;;;;4.55;2.85;;;;;;;;;;4994868;28;20488;-66
2023/09/07 01:55:20;;;;;;;4.65;3.10;;;;;;;;;;4992368;28;20120;-78
2023/09/07 01:58:05;;;;;;;4.15;2.72;;;;;;;;;;4994913;28;20029;-77
2023/09/07 02:00:52;;;;;;;6.20;2.85;;;;;;;;;;4993119;28;20066;-76
2023/09/07 02:03:37;;;;;;;5.22;3.40;;;;;;;;;;4997666;28;20199;-75
2023/09/07 02:06:22;;;;;;;8.80;3.30;;;;;;;;;;4989882;28;20508;-75
2023/09/07 02:09:07;;;;;;;6.95;3.42;;;;;;;;;;4991693;28;20544;-69
2023/09/07 02:11:53;;;;;;;6.47;3.83;;;;;;;;;;5003862;28;20063;-77
2023/09/07 02:14:38;;;;;;;5.07;3.50;;;;;;;;;;5012639;28;20460;-77
2023/09/07 02:17:25;;;;;;;5.05;3.42;;;;;;;;;;4996398;28;20527;-76
2023/09/07 02:20:11;;;;;;;4.85;3.15;;;;;;;;;;4993581;28;20038;-77
2023/09/07 02:22:56;;;;;;;6.05;3.00;;;;;;;;;;4994383;28;20034;-76
2023/09/07 02:25:42;;;;;;;7.05;3.85;;;;;;;;;;5007302;28;20064;-76
2023/09/07 02:28:27;;;;;;;6.15;3.33;;;;;;;;;;5004000;28;20260;-72
2023/09/07 02:31:12;;;;;;;6.18;3.33;;;;;;;;;;4992300;28;20022;-68
2023/09/07 02:33:57;;;;;;;5.00;3.20;;;;;;;;;;4992396;28;20642;-70
2023/09/07 02:36:43;;;;;;;8.25;3.88;;;;;;;;;;4989023;28;20802;-69
2023/09/07 02:39:28;;;;;;;6.47;3.25;;;;;;;;;;5000861;28;20050;-69
2023/09/07 02:42:13;;;;;;;4.65;2.92;;;;;;;;;;4982601;28;20030;-68
2023/09/07 02:44:59;;;;;;;5.75;3.17;;;;;;;;;;4996046;28;20038;-73
2023/09/07 02:47:44;;;;;;;5.10;3.08;;;;;;;;;;4996098;28;20030;-73
2023/09/07 02:50:30;;;;;;;4.55;3.22;;;;;;;;;;4994957;28;20573;-64
2023/09/07 02:53:15;;;;;;;5.63;2.78;;;;;;;;;;4998779;28;20266;-63
2023/09/07 02:56:03;;;;;;;7.47;3.70;;;;;;;;;;4996451;28;20128;-64
2023/09/07 02:58:49;;;;;;;7.97;3.80;;;;;;;;;;4996750;28;20053;-63
2023/09/07 03:01:34;;;;;;;6.68;4.03;;;;;;;;;;4995369;28;20362;-63
2023/09/07 03:04:19;;;;;;;6.97;3.53;;;;;;;;;;4990735;28;20044;-63
2023/09/07 03:07:04;;;;;;;8.15;3.55;;;;;;;;;;4994541;28;20028;-68
2023/09/07 03:09:51;;;;;;;10.52;3.78;;;;;;;;;;4996588;28;20084;-68
2023/09/07 03:12:36;;;;;;;10.00;3.72;;;;;;;;;;4994405;28;20038;-69
2023/09/07 03:15:21;;;;;;;6.60;3.28;;;;;;;;;;4994912;28;20044;-68
2023/09/07 03:18:07;;;;;;;5.15;3.10;;;;;;;;;;4997031;28;20392;-69
2023/09/07 03:20:54;;;;;;;5.00;3.20;;;;;;;;;;4994678;28;20041;-68
2023/09/07 03:23:44;;;;;;;8.40;3.80;;;;;;;;;;4991520;28;20429;-68
2023/09/07 03:26:29;;;;;;;7.05;3.22;;;;;;;;;;4992085;28;20052;-61
2023/09/07 03:29:14;;;;;;;5.43;3.60;;;;;;;;;;4995832;28;20033;-63
2023/09/07 03:32:00;;;;;;;6.13;3.35;;;;;;;;;;4989350;28;20397;-63
2023/09/07 03:34:45;;;;;;;7.05;3.30;;;;;;;;;;4996131;28;20041;-62
2023/09/07 03:37:30;;;;;;;5.88;3.60;;;;;;;;;;4995100;28;20064;-63
2023/09/07 03:40:15;;;;;;;5.95;4.20;;;;;;;;;;4995076;28;20129;-68
2023/09/07 03:43:01;;;;;;;8.35;4.43;;;;;;;;;;4994914;28;20084;-70
2023/09/07 03:45:46;;;;;;;8.75;3.22;;;;;;;;;;4994485;28;20084;-75
2023/09/07 03:48:31;;;;;;;5.60;3.42;;;;;;;;;;4995097;28;20419;-75
2023/09/07 03:51:16;;;;;;;6.78;3.45;;;;;;;;;;4993555;28;20041;-74
2023/09/07 03:54:02;;;;;;;5.00;3.03;;;;;;;;;;4999649;28;20116;-73
2023/09/07 03:56:47;;;;;;;7.38;3.70;;;;;;;;;;5001119;28;20362;-73
2023/09/07 03:59:32;;;;;;;5.70;3.30;;;;;;;;;;4995496;28;20042;-75
2023/09/07 04:02:17;;;;;;;4.28;2.70;;;;;;;;;;4994205;28;20540;-63
2023/09/07 04:05:04;;;;;;;7.10;3.33;;;;;;;;;;4994143;28;20629;-65
2023/09/07 04:07:50;;;;;;;6.47;3.50;;;;;;;;;;4993797;28;20044;-63
2023/09/07 04:10:38;;;;;;;8.57;4.38;;;;;;;;;;4995536;28;20128;-64
2023/09/07 04:13:24;;;;;;;7.95;3.13;;;;;;;;;;4994158;28;20109;-64
2023/09/07 04:16:09;;;;;;;4.75;3.50;;;;;;;;;;4994396;28;20037;-62
2023/09/07 04:18:54;;;;;;;5.85;3.45;;;;;;;;;;4995135;28;20114;-63
2023/09/07 04:21:40;;;;;;;6.90;3.45;;;;;;;;;;4994007;28;20033;-73
2023/09/07 04:24:27;;;;;;;6.07;3.35;;;;;;;;;;5008213;28;20088;-71
2023/09/07 04:27:12;;;;;;;5.40;3.75;;;;;;;;;;4994718;28;20033;-74
2023/09/07 04:30:00;;;;;;;7.47;4.10;;;;;;;;;;4995115;28;20480;-73
2023/09/07 04:32:45;;;;;;;5.72;3.45;;;;;;;;;;4979410;28;20044;-73
2023/09/07 04:35:30;;;;;;;9.75;3.50;;;;;;;;;;4994351;28;20477;-67
2023/09/07 04:38:16;;;;;;;10.77;3.58;;;;;;;;;;4994105;28;20046;-64
2023/09/07 04:41:08;;;;;;;8.20;3.22;;;;;;;;;;4991789;28;20303;-63
2023/09/07 04:43:53;;;;;;;6.55;3.75;;;;;;;;;;4993852;28;20038;-63
2023/09/07 04:46:38;;;;;;;6.60;3.50;;;;;;;;;;4988231;28;20045;-63
2023/09/07 04:49:24;;;;;;;8.05;4.07;;;;;;;;;;4991293;28;20076;-64
2023/09/07 04:52:09;;;;;;;5.00;3.13;;;;;;;;;;4979902;28;20034;-64
2023/09/07 04:54:54;;;;;;;6.70;3.35;;;;;;;;;;5001676;28;20121;-72
2023/09/07 04:57:39;;;;;;;6.35;3.78;;;;;;;;;;4993050;28;20551;-64
2023/09/07 05:00:25;;;;;;;9.85;3.70;;;;;;;;;;4994608;28;20127;-63
2023/09/07 05:03:10;;;;;;;7.15;3.63;;;;;;;;;;4991251;28;20029;-63
2023/09/07 05:05:56;;;;;;;6.15;3.58;;;;;;;;;;4984217;28;20496;-64
2023/09/07 05:08:41;;;;;;;5.78;3.25;;;;;;;;;;4988985;28;20058;-65
2023/09/07 05:11:26;;;;;;;6.10;3.28;;;;;;;;;;4983646;28;20034;-66
2023/09/07 05:14:11;;;;;;;6.70;3.75;;;;;;;;;;4983596;28;20123;-74
2023/09/07 05:16:57;;;;;;;6.20;3.78;;;;;;;;;;4985809;28;20042;-67
2023/09/07 05:19:42;;;;;;;9.88;3.72;;;;;;;;;;4988231;28;20136;-64
2023/09/07 05:22:28;;;;;;;8.93;4.28;;;;;;;;;;4986124;28;20076;-67
2023/09/07 05:25:13;;;;;;;6.38;3.90;;;;;;;;;;5006106;28;20037;-63
2023/09/07 05:27:58;;;;;;;9.02;4.63;;;;;;;;;;4992197;28;20044;-64
2023/09/07 05:30:43;;;;;;;7.47;4.00;;;;;;;;;;4989639;28;20185;-66
2023/09/07 05:33:29;;;;;;;6.72;4.03;;;;;;;;;;4987344;28;20388;-67
2023/09/07 05:36:14;;;;;;;10.10;4.25;;;;;;;;;;4987109;28;20053;-65
2023/09/07 05:39:01;;;;;;;10.05;4.15;;;;;;;;;;4993373;28;20037;-64
2023/09/07 05:41:49;;;;;;;7.30;4.18;;;;;;;;;;4991661;28;20112;-67
2023/09/07 05:44:34;;;;;;;5.82;4.30;;;;;;;;;;4986419;28;20424;-71
2023/09/07 05:47:19;;;;;;;7.82;3.75;;;;;;;;;;4991696;28;20040;-72
2023/09/07 05:50:04;;;;;;;7.35;4.45;;;;;;;;;;4987397;28;20117;-63
2023/09/07 05:52:50;;;;;;;6.82;3.92;;;;;;;;;;5005115;28;20054;-72
2023/09/07 05:55:35;;;;;;;9.13;4.72;;;;;;;;;;4991037;28;20108;-71
2023/09/07 05:58:20;;;;;;;8.15;4.40;;;;;;;;;;4988703;28;20347;-71
2023/09/07 06:01:06;;;;;;;8.55;4.32;;;;;;;;;;4995279;28;20076;-71
2023/09/07 06:03:51;;;;;;;6.00;3.88;;;;;;;;;;4992181;28;20092;-71
2023/09/07 06:06:36;;;;;;;5.78;3.53;;;;;;;;;;4989249;28;20388;-71
2023/09/07 06:09:21;;;;;;;7.28;3.95;;;;;;;;;;4985550;28;20077;-67
2023/09/07 06:12:07;;;;;;;7.38;4.57;;;;;;;;;;4987714;28;20433;-71
2023/09/07 06:14:52;;;;;;;9.98;3.70;;;;;;;;;;4988462;28;20065;-69
2023/09/07 06:17:37;;;;;;;8.95;5.05;;;;;;;;;;4983417;28;20026;-70
2023/09/07 06:20:22;;;;;;;11.95;5.03;;;;;;;;;;4976778;28;20030;-68
2023/09/07 06:23:08;;;;;;;9.77;4.93;;;;;;;;;;4994179;28;20033;-71
2023/09/07 06:25:53;;;;;;;9.82;5.35;;;;;;;;;;4995993;28;20472;-69
2023/09/07 06:28:38;;;;;;;6.88;3.95;;;;;;;;;;4994224;28;20488;-69
2023/09/07 06:31:24;;;;;;;7.75;4.78;;;;;;;;;;4996043;28;20037;-62
2023/09/07 06:34:09;;;;;;;8.00;3.90;;;;;;;;;;4996339;28;20174;-64
2023/09/07 06:36:55;;;;;;;8.60;4.68;;;;;;;;;;4996608;28;20489;-64
2023/09/07 06:39:43;;;;;;;10.98;5.65;;;;;;;;;;4996000;28;20080;-64
2023/09/07 06:42:28;;;;;;;8.68;5.18;;;;;;;;;;4997063;28;20034;-64
2023/09/07 06:45:13;;;;;;;11.93;5.65;;;;;;;;;;4995426;28;20482;-70
2023/09/07 06:47:58;;;;;;;7.35;4.60;;;;;;;;;;4997021;28;20037;-70
2023/09/07 06:50:44;;;;;;;10.88;5.55;;;;;;;;;;4996469;28;20085;-71
2023/09/07 06:53:29;;;;;;;11.23;5.53;;;;;;;;;;5004091;28;20036;-71
2023/09/07 06:56:14;;;;;;;7.47;5.40;;;;;;;;;;4998690;28;20034;-70
2023/09/07 06:59:00;;;;;;;8.85;5.07;;;;;;;;;;4997187;28;20053;-71
2023/09/07 07:01:45;;;;;;;9.30;4.80;;;;;;;;;;4980724;28;20492;-72
2023/09/07 07:04:30;;;;;;;7.05;3.90;;;;;;;;;;4995278;28;20048;-70
2023/09/07 07:07:16;;;;;;;8.25;4.45;;;;;;;;;;4996153;28;20110;-72
2023/09/07 07:10:01;;;;;;;9.25;4.50;;;;;;;;;;4995466;28;20120;-71
2023/09/07 07:12:46;;;;;;;9.25;5.10;;;;;;;;;;4996863;28;20125;-71
2023/09/07 07:15:31;;;;;;;7.53;4.22;;;;;;;;;;4995380;28;20105;-70
2023/09/07 07:18:16;;;;;;;5.32;3.80;;;;;;;;;;4993389;28;20061;-71
2023/09/07 07:21:02;;;;;;;10.00;6.10;;;;;;;;;;4980023;28;20080;-64
2023/09/07 07:23:47;;;;;;;8.32;4.35;;;;;;;;;;4995136;28;20038;-64
2023/09/07 07:26:32;;;;;;;6.97;4.70;;;;;;;;;;4990942;28;20034;-68
2023/09/07 07:29:18;;;;;;;10.52;4.85;;;;;;;;;;4995965;28;20292;-68
2023/09/07 07:32:03;;;;;;;8.60;3.95;;;;;;;;;;4994681;28;20034;-68
2023/09/07 07:34:49;;;;;;;10.88;4.50;;;;;;;;;;4995802;28;20072;-68
2023/09/07 07:37:34;;;;;;;10.02;5.40;;;;;;;;;;4990283;28;20282;-69
2023/09/07 07:40:20;;;;;;;8.32;4.03;;;;;;;;;;4992350;28;20037;-69
2023/09/07 07:43:06;;;;;;;5.93;3.67;;;;;;;;;;4994383;28;20111;-69
2023/09/07 07:45:54;;;;;;;6.00;4.05;;;;;;;;;;4994089;28;20686;-68
2023/09/07 07:48:39;;;;;;;7.07;3.63;;;;;;;;;;4982085;28;20038;-68
2023/09/07 07:51:26;;;;;;;4.68;3.20;;;;;;;;;;4994131;28;20038;-68
2023/09/07 07:54:11;;;;;;;6.30;3.97;;;;;;;;;;4995902;28;20333;-68
2023/09/07 07:56:57;;;;;;;5.75;3.60;;;;;;;;;;4995209;28;20120;-68
2023/09/07 07:59:42;;;;;;;7.97;4.30;;;;;;;;;;4995160;28;20483;-69
2023/09/07 08:02:28;;;;;;;5.88;3.78;;;;;;;;;;4993610;28;20056;-71
2023/09/07 08:05:14;;;;;;;5.75;4.45;;;;;;;;;;4977686;28;20026;-67
2023/09/07 08:07:59;;;;;;;5.53;3.70;;;;;;;;;;4993928;28;20080;-66
2023/09/07 08:10:45;;;;;;;4.85;3.88;;;;;;;;;;4980168;28;20029;-69
2023/09/07 08:13:31;;;;;;;7.28;4.63;;;;;;;;;;4992079;28;20087;-69
2023/09/07 08:16:17;;;;;;;6.78;4.63;;;;;;;;;;4986642;28;20068;-65
2023/09/07 08:19:03;;;;;;;6.45;4.15;;;;;;;;;;4992186;28;20033;-66
2023/09/07 08:21:49;;;;;;;4.13;3.22;;;;;;;;;;4985327;28;20034;-72
2023/09/07 08:24:34;;;;;;;5.68;3.83;;;;;;;;;;4986494;28;20025;-71
2023/09/07 08:27:20;;;;;;;9.57;4.00;;;;;;;;;;4993973;28;20045;-72
2023/09/07 08:30:06;;;;;;;7.45;3.55;;;;;;;;;;4989622;28;20044;-73
2023/09/07 08:32:51;;;;;;;6.40;3.90;;;;;;;;;;4986986;28;20029;-71
2023/09/07 08:35:43;;;;;;;8.18;5.28;;;;;;;;;;4988397;28;20050;-69
2023/09/07 08:38:30;;;;;;;7.40;3.95;;;;;;;;;;4985498;28;20489;-70
2023/09/07 08:41:16;;;;;;;6.22;4.20;;;;;;;;;;4986382;28;20038;-69
2023/09/07 08:44:01;;;;;;;6.68;3.58;;;;;;;;;;4988103;28;20034;-72
2023/09/07 08:46:49;;;;;;;4.35;3.75;;;;;;;;;;4982656;28;20096;-71
2023/09/07 08:49:34;;;;;;;5.30;3.83;;;;;;;;;;4987440;28;20037;-72
2023/09/07 08:52:21;;;;;;;5.70;3.63;;;;;;;;;;4989493;28;20662;-70
2023/09/07 08:55:07;;;;;;;4.97;3.80;;;;;;;;;;4994714;28;20858;-67
2023/09/07 08:57:52;;;;;;;9.68;4.45;;;;;;;;;;4992478;28;20103;-67
2023/09/07 09:00:37;;;;;;;5.50;3.97;;;;;;;;;;4997949;28;20034;-68
2023/09/07 09:03:23;;;;;;;8.30;4.55;;;;;;;;;;4994207;28;20488;-68
2023/09/07 09:06:08;;;;;;;7.93;4.38;;;;;;;;;;4993317;28;20404;-68
2023/09/07 09:08:55;;;;;;;9.23;4.05;;;;;;;;;;4993722;28;20041;-68
2023/09/07 09:11:40;;;;;;;7.57;4.07;;;;;;;;;;4994141;28;20029;-67
2023/09/07 09:14:25;;;;;;;7.45;4.15;;;;;;;;;;4993418;28;20037;-69
2023/09/07 09:17:12;;;;;;;5.63;3.67;;;;;;;;;;4993188;28;20505;-67
2023/09/07 09:19:57;;;;;;;7.20;4.00;;;;;;;;;;4993305;28;20034;-67
2023/09/07 09:22:43;;;;;;;6.55;4.40;;;;;;;;;;4994335;28;20046;-66
2023/09/07 09:25:28;;;;;;;6.50;4.00;;;;;;;;;;4992930;28;20081;-67
2023/09/07 09:28:13;;;;;;;7.32;4.10;;;;;;;;;;4991888;28;20054;-66
2023/09/07 09:30:59;;;;;;;5.13;3.88;;;;;;;;;;4994354;28;20041;-68
2023/09/07 09:33:51;;;;;;;7.97;4.60;;;;;;;;;;4994107;28;20083;-72
2023/09/07 09:36:37;;;;;;;4.13;3.50;;;;;;;;;;4992530;28;20496;-70
2023/09/07 09:39:23;;;;;;;8.63;4.93;;;;;;;;;;4992987;28;20037;-69
2023/09/07 09:42:09;;;;;;;6.97;3.90;;;;;;;;;;4993622;28;20101;-70
2023/09/07 09:44:54;;;;;;;5.78;4.68;;;;;;;;;;4990531;28;20041;-71
2023/09/07 09:47:40;;;;;;;6.30;4.10;;;;;;;;;;4991527;28;20489;-70
2023/09/07 09:50:26;;;;;;;4.82;3.65;;;;;;;;;;4992368;28;20482;-69
2023/09/07 09:53:15;;;;;;;4.95;3.90;;;;;;;;;;4975761;28;20060;-72
2023/09/07 09:56:01;;;;;;;6.50;3.70;;;;;;;;;;5012176;28;20041;-71
2023/09/07 09:58:46;;;;;;;5.90;4.30;;;;;;;;;;4993689;28;20038;-71
2023/09/07 10:01:38;;;;;;;7.60;4.30;;;;;;;;;;4991230;28;20022;-73
2023/09/07 10:04:23;;;;;;;4.70;3.80;;;;;;;;;;4990479;28;20129;-70
2023/09/07 10:07:08;;;;;;;5.15;3.72;;;;;;;;;;4978102;28;20116;-70
2023/09/07 10:09:56;;;;;;;8.93;3.85;;;;;;;;;;4991027;28;20192;-68
2023/09/07 10:12:45;;;;;;;5.18;4.07;;;;;;;;;;4990728;28;20037;-67
2023/09/07 10:15:31;;;;;;;5.20;4.03;;;;;;;;;;4997546;28;20061;-69
2023/09/07 10:18:16;;;;;;;6.22;4.28;;;;;;;;;;4981386;28;20034;-69
2023/09/07 10:21:02;;;;;;;6.18;4.10;;;;;;;;;;4995495;28;20140;-68
2023/09/07 10:23:50;;;;;;;5.95;4.28;;;;;;;;;;4996669;28;20038;-69
2023/09/07 10:26:36;;;;;;;8.23;4.07;;;;;;;;;;4996988;28;20044;-70
2023/09/07 10:29:23;;;;;;;6.53;4.10;;;;;;;;;;4998647;28;20444;-67
2023/09/07 10:32:12;;;;;;;7.88;4.10;;;;;;;;;;4995510;28;20049;-69
2023/09/07 10:34:59;;;;;;;5.15;3.97;;;;;;;;;;4996219;28;20033;-68
2023/09/07 10:37:46;;;;;;;5.78;4.60;;;;;;;;;;4996351;28;20025;-70
2023/09/07 10:40:31;;;;;;;7.05;4.32;;;;;;;;;;4997049;28;20109;-67
2023/09/07 10:43:17;;;;;;;8.25;4.60;;;;;;;;;;4993554;28;20034;-70
2023/09/07 10:46:02;;;;;;;5.15;4.07;;;;;;;;;;4996848;28;20116;-67
2023/09/07 10:48:52;;;;;;;5.05;3.80;;;;;;;;;;4994708;28;20042;-70
2023/09/07 10:51:45;;;;;;;6.35;4.05;;;;;;;;;;4996697;28;20814;-70
2023/09/07 10:54:30;;;;;;;5.82;4.15;;;;;;;;;;4997882;28;20040;-71
2023/09/07 10:57:17;;;;;;;8.35;4.70;;;;;;;;;;4991999;28;20046;-73
2023/09/07 11:00:03;;;;;;;6.47;4.18;;;;;;;;;;4983809;28;20178;-70
2023/09/07 11:02:48;;;;;;;6.90;4.57;;;;;;;;;;4977109;28;20038;-69
2023/09/07 11:05:36;;;;;;;5.90;3.70;;;;;;;;;;4995624;28;20026;-69
2023/09/07 11:08:22;;;;;;;11.77;5.05;;;;;;;;;;4996023;28;20034;-68
2023/09/07 11:11:08;;;;;;;10.15;4.18;;;;;;;;;;4996572;28;20042;-67
2023/09/07 11:13:56;;;;;;;11.32;4.82;;;;;;;;;;4996360;28;20046;-68
2023/09/07 11:16:43;;;;;;;10.25;4.85;;;;;;;;;;4995637;28;20038;-69
2023/09/07 11:19:31;;;;;;;8.77;5.65;;;;;;;;;;4995162;28;20129;-68
2023/09/07 11:22:16;;;;;;;6.40;4.88;;;;;;;;;;4995183;28;20543;-69
2023/09/07 11:25:01;;;;;;;8.02;4.53;;;;;;;;;;4982094;28;20053;-72
2023/09/07 11:27:46;;;;;;;9.65;5.18;;;;;;;;;;4990405;28;20112;-72
2023/09/07 11:30:32;;;;;;;5.95;4.60;;;;;;;;;;5008713;28;20136;-75
2023/09/07 11:33:18;;;;;;;7.93;4.97;;;;;;;;;;4993133;28;20077;-72
2023/09/07 11:36:03;;;;;;;7.93;5.18;;;;;;;;;;4996459;28;20042;-71
2023/09/07 11:38:48;;;;;;;7.55;4.13;;;;;;;;;;4995827;28;20481;-70
2023/09/07 11:41:34;;;;;;;6.45;4.32;;;;;;;;;;4994835;28;20044;-67
2023/09/07 11:44:19;;;;;;;7.13;5.10;;;;;;;;;;5004956;28;20116;-70
2023/09/07 11:47:04;;;;;;;8.35;5.03;;;;;;;;;;4994091;28;20540;-70
2023/09/07 11:49:51;;;;;;;8.93;5.32;;;;;;;;;;4995955;28;20034;-69
2023/09/07 11:52:36;;;;;;;10.52;4.53;;;;;;;;;;4995469;28;20044;-72
2023/09/07 11:55:21;;;;;;;7.03;4.70;;;;;;;;;;5005731;28;20052;-70
2023/09/07 11:58:07;;;;;;;10.05;4.75;;;;;;;;;;4994717;28;20040;-66
2023/09/07 12:00:52;;;;;;;7.25;4.95;;;;;;;;;;4995721;28;20046;-71
2023/09/07 12:03:37;;;;;;;8.73;5.20;;;;;;;;;;4994119;28;20041;-70
2023/09/07 12:06:23;;;;;;;8.05;5.20;;;;;;;;;;4995279;28;20396;-71
2023/09/07 12:09:11;;;;;;;6.95;5.03;;;;;;;;;;4995507;28;20033;-72
2023/09/07 12:11:57;;;;;;;7.93;4.75;;;;;;;;;;4994245;28;20508;-71
2023/09/07 12:14:42;;;;;;;7.53;5.35;;;;;;;;;;4995489;28;20057;-71
2023/09/07 12:17:27;;;;;;;8.15;5.25;;;;;;;;;;4986625;28;20037;-67
2023/09/07 12:20:14;;;;;;;6.10;4.60;;;;;;;;;;4994169;28;20484;-67
2023/09/07 12:22:59;;;;;;;8.52;5.60;;;;;;;;;;4994722;28;20041;-67
2023/09/07 12:25:46;;;;;;;6.63;4.95;;;;;;;;;;4994061;28;20022;-67
2023/09/07 12:28:32;;;;;;;6.38;4.72;;;;;;;;;;4993783;28;20520;-68
2023/09/07 12:31:17;;;;;;;7.35;4.72;;;;;;;;;;4994680;28;20044;-66
2023/09/07 12:34:03;;;;;;;8.02;4.85;;;;;;;;;;4993021;28;20045;-72
2023/09/07 12:36:49;;;;;;;6.10;4.35;;;;;;;;;;4994747;28;20029;-70
2023/09/07 12:39:34;;;;;;;7.88;4.72;;;;;;;;;;4994132;28;20436;-68
2023/09/07 12:42:19;;;;;;;5.78;4.43;;;;;;;;;;4994456;28;20033;-67
2023/09/07 12:45:06;;;;;;;6.30;4.68;;;;;;;;;;5001469;28;20036;-67
2023/09/07 12:47:51;;;;;;;7.25;5.00;;;;;;;;;;4983563;28;20034;-67
2023/09/07 12:50:36;;;;;;;5.55;4.25;;;;;;;;;;4994162;28;20034;-67
2023/09/07 12:53:25;;;;;;;9.88;4.60;;;;;;;;;;4990990;28;20438;-73
2023/09/07 12:56:10;;;;;;;6.60;4.32;;;;;;;;;;4997125;28;20030;-67
2023/09/07 12:58:59;;;;;;;7.95;3.78;;;;;;;;;;4994600;28;20132;-67
2023/09/07 13:01:44;;;;;;;7.40;4.10;;;;;;;;;;4985646;28;20107;-67
2023/09/07 13:04:29;;;;;;;7.35;4.13;;;;;;;;;;4991319;28;20034;-68
2023/09/07 13:07:15;;;;;;;7.40;4.60;;;;;;;;;;4993559;28;20077;-68
2023/09/07 13:10:03;;;;;;;7.00;4.13;;;;;;;;;;4993831;28;20079;-67
2023/09/07 13:12:49;;;;;;;6.30;3.83;;;;;;;;;;4990856;28;20628;-73
2023/09/07 13:15:34;;;;;;;6.82;4.28;;;;;;;;;;4993407;28;20050;-68
2023/09/07 13:18:19;;;;;;;4.60;3.47;;;;;;;;;;4994820;28;20030;-69
2023/09/07 13:21:04;;;;;;;6.90;3.47;;;;;;;;;;4988251;28;20034;-70
2023/09/07 13:23:50;;;;;;;6.95;4.00;;;;;;;;;;4988096;28;20034;-71
2023/09/07 13:26:36;;;;;;;5.97;4.10;;;;;;;;;;5001811;28;20485;-69
2023/09/07 13:29:21;;;;;;;4.90;4.05;;;;;;;;;;4988662;28;20027;-68
2023/09/07 13:32:07;;;;;;;5.18;3.80;;;;;;;;;;4990733;28;20042;-67
2023/09/07 13:34:52;;;;;;;8.30;4.00;;;;;;;;;;4994372;28;20041;-68
2023/09/07 13:37:37;;;;;;;9.68;4.63;;;;;;;;;;4994255;28;20380;-67
2023/09/07 13:40:24;;;;;;;9.35;4.97;;;;;;;;;;4994268;28;20085;-67
2023/09/07 13:43:09;;;;;;;5.20;3.70;;;;;;;;;;4979140;28;20056;-68
2023/09/07 13:45:54;;;;;;;7.10;3.65;;;;;;;;;;4993881;28;20054;-69
2023/09/07 13:48:39;;;;;;;6.00;4.00;;;;;;;;;;4998050;28;20048;-70
2023/09/07 13:51:24;;;;;;;5.15;3.30;;;;;;;;;;4997533;28;20480;-69
2023/09/07 13:54:10;;;;;;;6.43;3.97;;;;;;;;;;5009283;28;20045;-69
2023/09/07 13:56:56;;;;;;;9.75;4.10;;;;;;;;;;4997465;28;20041;-69
2023/09/07 13:59:41;;;;;;;5.53;3.80;;;;;;;;;;4997127;28;20022;-68
2023/09/07 14:02:26;;;;;;;10.55;4.00;;;;;;;;;;4995260;28;20028;-68
2023/09/07 14:05:11;;;;;;;5.35;3.83;;;;;;;;;;4996916;28;20465;-68
2023/09/07 14:07:57;;;;;;;11.15;4.03;;;;;;;;;;4997812;28;20091;-67
2023/09/07 14:10:42;;;;;;;6.10;3.85;;;;;;;;;;4997623;28;20429;-70
2023/09/07 14:13:27;;;;;;;4.95;3.38;;;;;;;;;;4997509;28;20026;-70
2023/09/07 14:16:13;;;;;;;6.30;3.35;;;;;;;;;;4995849;28;20054;-70
2023/09/07 14:18:58;;;;;;;5.50;3.80;;;;;;;;;;4996887;28;20468;-70
2023/09/07 14:21:43;;;;;;;5.13;3.85;;;;;;;;;;4996585;28;20033;-71
2023/09/07 14:24:29;;;;;;;5.63;4.25;;;;;;;;;;4994836;28;20038;-70
2023/09/07 14:27:14;;;;;;;4.43;3.70;;;;;;;;;;4997377;28;20050;-69
2023/09/07 14:29:59;;;;;;;8.65;4.40;;;;;;;;;;4991283;28;20073;-68
2023/09/07 14:32:46;;;;;;;12.15;4.15;;;;;;;;;;4996209;28;20544;-69
2023/09/07 14:35:32;;;;;;;8.60;4.00;;;;;;;;;;4996916;28;20045;-70
2023/09/07 14:38:17;;;;;;;7.13;4.13;;;;;;;;;;4997352;28;20061;-67
2023/09/07 14:41:02;;;;;;;5.85;3.92;;;;;;;;;;4997088;28;20074;-68
2023/09/07 14:43:48;;;;;;;5.22;3.53;;;;;;;;;;4992379;28;20493;-69
2023/09/07 14:46:33;;;;;;;6.95;4.00;;;;;;;;;;4995998;28;20449;-71
2023/09/07 14:49:18;;;;;;;5.78;3.72;;;;;;;;;;4996844;28;20096;-71
2023/09/07 14:52:04;;;;;;;8.43;4.03;;;;;;;;;;4997111;28;20033;-70
2023/09/07 14:54:49;;;;;;;6.47;3.42;;;;;;;;;;5009269;28;20034;-71
2023/09/07 14:57:34;;;;;;;7.15;3.85;;;;;;;;;;4996484;28;20123;-70
2023/09/07 15:00:19;;;;;;;5.18;3.28;;;;;;;;;;4995626;28;20092;-71
2023/09/07 15:03:05;;;;;;;7.72;4.30;;;;;;;;;;4996714;28;20045;-68
2023/09/07 15:05:50;;;;;;;5.65;3.80;;;;;;;;;;4996514;28;20041;-74
2023/09/07 15:08:35;;;;;;;6.85;4.00;;;;;;;;;;4996859;28;20034;-73
2023/09/07 15:11:21;;;;;;;7.22;4.57;;;;;;;;;;4993019;28;20026;-72
2023/09/07 15:14:06;;;;;;;7.13;3.67;;;;;;;;;;4991898;28;20029;-73
2023/09/07 15:16:52;;;;;;;5.63;3.50;;;;;;;;;;4981288;28;20054;-76
2023/09/07 15:19:37;;;;;;;7.28;3.95;;;;;;;;;;4996105;28;20532;-71
2023/09/07 15:22:22;;;;;;;5.55;3.47;;;;;;;;;;4995602;28;20042;-73
2023/09/07 15:25:08;;;;;;;5.90;3.65;;;;;;;;;;4996136;28;20041;-71
2023/09/07 15:27:54;;;;;;;8.57;3.70;;;;;;;;;;4996156;28;20041;-70
2023/09/07 15:30:39;;;;;;;7.13;3.83;;;;;;;;;;4994760;28;20096;-70
2023/09/07 15:33:24;;;;;;;7.63;3.95;;;;;;;;;;4995770;28;20124;-69
2023/09/07 15:36:09;;;;;;;5.95;3.70;;;;;;;;;;4995268;28;20481;-69
2023/09/07 15:38:55;;;;;;;7.32;4.47;;;;;;;;;;4994774;28;20034;-66
2023/09/07 15:41:40;;;;;;;6.20;3.88;;;;;;;;;;4988633;28;20050;-68
2023/09/07 15:44:27;;;;;;;6.43;3.58;;;;;;;;;;4996126;28;20487;-66
2023/09/07 15:47:13;;;;;;;6.45;3.78;;;;;;;;;;4995131;28;20056;-68
2023/09/07 15:49:58;;;;;;;9.57;4.75;;;;;;;;;;4983799;28;20117;-67
2023/09/07 15:52:46;;;;;;;5.95;3.78;;;;;;;;;;4985249;28;20025;-64
2023/09/07 15:55:31;;;;;;;4.82;3.42;;;;;;;;;;5000575;28;20503;-65
2023/09/07 15:58:17;;;;;;;7.80;4.28;;;;;;;;;;4994120;28;20036;-66
2023/09/07 16:01:03;;;;;;;5.22;3.42;;;;;;;;;;4994402;28;20612;-68
2023/09/07 16:03:49;;;;;;;7.80;3.95;;;;;;;;;;4995345;28;20089;-68
2023/09/07 16:06:34;;;;;;;8.32;4.50;;;;;;;;;;4994417;28;20038;-67
2023/09/07 16:09:20;;;;;;;7.97;3.60;;;;;;;;;;4979676;28;20392;-68
2023/09/07 16:12:05;;;;;;;5.10;3.85;;;;;;;;;;4995466;28;20060;-68
2023/09/07 16:14:50;;;;;;;6.68;3.97;;;;;;;;;;4994272;28;20548;-69
2023/09/07 16:17:36;;;;;;;6.07;3.83;;;;;;;;;;4995007;28;20044;-71
2023/09/07 16:20:21;;;;;;;9.15;4.20;;;;;;;;;;4994882;28;20173;-71
2023/09/07 16:23:09;;;;;;;5.82;3.60;;;;;;;;;;4981810;28;20053;-71
2023/09/07 16:25:55;;;;;;;5.67;3.63;;;;;;;;;;4994423;28;20033;-72
2023/09/07 16:28:40;;;;;;;6.43;3.95;;;;;;;;;;4995075;28;20268;-71
2023/09/07 16:31:27;;;;;;;6.10;3.67;;;;;;;;;;4988174;28;20529;-73
2023/09/07 16:34:12;;;;;;;6.22;3.75;;;;;;;;;;4980285;28;20041;-68